Time;durP1;ratioP1;P1;durP2;ratioP2;P2;SDS_P1;SDS_P2;PMS_P1;PMS_P2;Temp;Humidity;BMP_temperature;BMP_pressure;BME280_temperature;BME280_humidity;BME280_pressure;Samples;Min_cycle;Max_cycle;Signal;HPM_P1;HPM_P2
2022/07/17 00:00:17;;;;;;;6.22;2.88;;;16.70;99.90;;;;;;5053287;28;20206;-58
2022/07/17 00:02:44;;;;;;;5.65;3.08;;;16.80;99.90;;;;;;5053639;28;20218;-58
2022/07/17 00:05:11;;;;;;;5.97;3.10;;;16.80;99.90;;;;;;5052906;28;20259;-59
2022/07/17 00:07:37;;;;;;;4.47;2.97;;;16.80;99.90;;;;;;5052630;28;20233;-57
2022/07/17 00:10:05;;;;;;;3.38;2.60;;;16.80;99.90;;;;;;5052946;28;20206;-59
2022/07/17 00:12:32;;;;;;;3.00;2.60;;;16.70;99.90;;;;;;5052733;28;20205;-58
2022/07/17 00:15:00;;;;;;;3.13;2.33;;;16.70;99.90;;;;;;5053145;28;20206;-58
2022/07/17 00:17:27;;;;;;;5.23;2.50;;;16.60;99.90;;;;;;5053868;28;20222;-58
2022/07/17 00:19:53;;;;;;;3.93;2.67;;;16.50;99.90;;;;;;5053400;28;20229;-58
2022/07/17 00:22:20;;;;;;;4.05;2.35;;;16.50;99.90;;;;;;5053149;28;20626;-58
2022/07/17 00:24:47;;;;;;;8.13;2.50;;;16.50;99.90;;;;;;5053418;28;20256;-58
2022/07/17 00:27:14;;;;;;;2.88;2.63;;;16.50;99.90;;;;;;5052942;28;20671;-58
2022/07/17 00:29:41;;;;;;;5.70;3.08;;;16.50;99.90;;;;;;5052751;28;20205;-59
2022/07/17 00:32:09;;;;;;;3.33;2.40;;;16.50;99.90;;;;;;5052575;28;20232;-59
2022/07/17 00:34:35;;;;;;;5.55;3.25;;;16.50;99.90;;;;;;5052320;28;20217;-58
2022/07/17 00:37:02;;;;;;;4.78;2.58;;;16.30;99.90;;;;;;5052269;28;20229;-58
2022/07/17 00:39:29;;;;;;;2.70;2.30;;;16.30;99.90;;;;;;5052535;28;20225;-58
2022/07/17 00:41:56;;;;;;;3.00;2.30;;;16.20;99.90;;;;;;5054079;28;20300;-58
2022/07/17 00:44:27;;;;;;;3.67;2.50;;;16.20;99.90;;;;;;5059395;28;20231;-58
2022/07/17 00:46:54;;;;;;;3.77;2.50;;;16.10;99.90;;;;;;5058801;28;20237;-58
2022/07/17 00:49:22;;;;;;;6.68;2.60;;;16.10;99.90;;;;;;5059301;28;20208;-57
2022/07/17 00:51:49;;;;;;;4.05;2.95;;;16.00;99.90;;;;;;5059235;28;20209;-58
2022/07/17 00:54:18;;;;;;;3.23;2.77;;;16.00;99.90;;;;;;5058790;28;20296;-58
2022/07/17 00:56:47;;;;;;;3.80;2.60;;;15.90;99.90;;;;;;5058709;28;20593;-58
2022/07/17 00:59:16;;;;;;;2.60;2.40;;;15.80;99.90;;;;;;5059360;28;20256;-57
2022/07/17 01:01:43;;;;;;;3.00;2.40;;;15.70;99.90;;;;;;5058807;28;20649;-57
2022/07/17 01:04:10;;;;;;;4.88;2.83;;;15.60;99.90;;;;;;5058812;28;20213;-58
2022/07/17 01:06:38;;;;;;;4.97;2.70;;;15.50;99.90;;;;;;5058580;28;20732;-58
2022/07/17 01:09:04;;;;;;;3.55;2.47;;;15.50;99.90;;;;;;5058846;28;20232;-60
2022/07/17 01:11:31;;;;;;;2.60;2.40;;;15.50;99.90;;;;;;5058730;28;20216;-57
2022/07/17 01:13:58;;;;;;;5.00;2.70;;;15.40;99.90;;;;;;5059240;28;20209;-58
2022/07/17 01:16:25;;;;;;;6.00;2.93;;;15.40;99.90;;;;;;5058798;28;20604;-58
2022/07/17 01:18:53;;;;;;;6.13;3.27;;;15.40;99.90;;;;;;5058957;28;20221;-58
2022/07/17 01:21:21;;;;;;;3.00;2.33;;;15.40;99.90;;;;;;5058943;28;20640;-58
2022/07/17 01:23:48;;;;;;;3.93;2.63;;;15.40;99.90;;;;;;5059253;28;20212;-58
2022/07/17 01:26:15;;;;;;;3.50;2.13;;;15.40;99.90;;;;;;5058706;28;20669;-58
2022/07/17 01:28:42;;;;;;;3.57;2.23;;;15.40;99.90;;;;;;5058547;28;20210;-59
2022/07/17 01:31:08;;;;;;;4.17;2.30;;;15.40;99.90;;;;;;5058804;28;20217;-58
2022/07/17 01:33:35;;;;;;;2.73;2.47;;;15.30;99.90;;;;;;5059120;28;20201;-58
2022/07/17 01:36:02;;;;;;;4.40;2.60;;;15.30;99.90;;;;;;5059127;28;20220;-57
2022/07/17 01:38:30;;;;;;;4.13;2.50;;;15.30;99.90;;;;;;5058905;28;20228;-58
2022/07/17 01:40:57;;;;;;;3.23;2.47;;;15.30;99.90;;;;;;5058808;28;20232;-58
2022/07/17 01:43:23;;;;;;;4.60;2.40;;;15.20;99.90;;;;;;5059352;28;20205;-58
2022/07/17 01:45:50;;;;;;;2.43;2.23;;;15.10;99.90;;;;;;5059036;28;20213;-58
2022/07/17 01:48:25;;;;;;;3.00;2.70;;;15.10;99.90;;;;;;5058456;28;20237;-58
2022/07/17 01:50:51;;;;;;;3.10;2.80;;;15.00;99.90;;;;;;5059088;28;20207;-58
2022/07/17 01:53:18;;;;;;;4.63;2.77;;;14.90;99.90;;;;;;5057576;28;20232;-57
2022/07/17 01:55:46;;;;;;;4.13;3.00;;;14.80;99.90;;;;;;5055380;28;20259;-58
2022/07/17 01:58:14;;;;;;;4.83;2.97;;;14.80;99.90;;;;;;5055250;28;20709;-58
2022/07/17 02:00:41;;;;;;;4.93;2.73;;;14.80;99.90;;;;;;5055715;28;20748;-58
2022/07/17 02:03:07;;;;;;;4.47;2.63;;;14.60;99.90;;;;;;5055523;28;20263;-58
2022/07/17 02:05:34;;;;;;;3.13;2.67;;;14.50;99.90;;;;;;5055872;28;20205;-57
2022/07/17 02:08:01;;;;;;;3.87;2.70;;;14.50;99.90;;;;;;5055660;28;20229;-58
2022/07/17 02:10:28;;;;;;;4.43;2.87;;;14.60;99.90;;;;;;5055814;28;20588;-59
2022/07/17 02:12:57;;;;;;;2.90;2.60;;;14.60;99.90;;;;;;5055440;28;20241;-58
2022/07/17 02:15:24;;;;;;;3.07;2.43;;;14.60;99.90;;;;;;5055405;28;20252;-58
2022/07/17 02:17:51;;;;;;;2.80;2.50;;;14.60;99.90;;;;;;5054812;28;20230;-58
2022/07/17 02:20:18;;;;;;;4.90;2.63;;;14.50;99.90;;;;;;5055591;28;20232;-58
2022/07/17 02:22:45;;;;;;;2.60;2.40;;;14.40;99.90;;;;;;5055476;28;20209;-58
2022/07/17 02:25:13;;;;;;;3.20;2.50;;;14.30;99.90;;;;;;5055769;28;20263;-58
2022/07/17 02:27:40;;;;;;;2.73;2.30;;;14.20;99.90;;;;;;5055363;28;20320;-58
2022/07/17 02:30:11;;;;;;;4.43;3.00;;;14.20;99.90;;;;;;5055378;28;20205;-58
2022/07/17 02:32:38;;;;;;;6.17;2.47;;;14.20;99.90;;;;;;5054977;28;20229;-58
2022/07/17 02:35:05;;;;;;;2.63;2.43;;;14.20;99.90;;;;;;5055129;28;20220;-57
2022/07/17 02:37:32;;;;;;;2.90;2.60;;;14.20;99.90;;;;;;5054375;28;20226;-59
2022/07/17 02:39:59;;;;;;;3.70;2.70;;;14.10;99.90;;;;;;5054491;28;20228;-58
2022/07/17 02:42:27;;;;;;;4.70;2.67;;;14.10;99.90;;;;;;5054318;28;20670;-57
2022/07/17 02:44:55;;;;;;;5.03;3.13;;;14.00;99.90;;;;;;5054859;28;20210;-58
2022/07/17 02:47:24;;;;;;;3.53;2.47;;;14.00;99.90;;;;;;5053561;28;20728;-58
2022/07/17 02:49:51;;;;;;;3.43;2.70;;;14.00;99.90;;;;;;5054300;28;20205;-58
2022/07/17 02:52:18;;;;;;;2.80;2.60;;;13.90;99.90;;;;;;5054064;28;20209;-58
2022/07/17 02:54:45;;;;;;;4.67;2.93;;;13.90;99.90;;;;;;5054143;28;20282;-58
2022/07/17 02:57:12;;;;;;;3.10;2.80;;;14.00;99.90;;;;;;5053609;28;20257;-58
2022/07/17 02:59:40;;;;;;;4.87;2.80;;;14.00;99.90;;;;;;5054526;28;20229;-58
2022/07/17 03:02:07;;;;;;;3.47;2.60;;;14.00;99.90;;;;;;5054521;28;20209;-58
2022/07/17 03:04:35;;;;;;;2.73;2.53;;;13.90;99.90;;;;;;5054053;28;20221;-61
2022/07/17 03:07:02;;;;;;;3.87;2.57;;;13.80;99.90;;;;;;5053630;28;20591;-58
2022/07/17 03:09:29;;;;;;;4.37;2.60;;;13.80;99.90;;;;;;5054037;28;20209;-58
2022/07/17 03:11:55;;;;;;;2.90;2.40;;;13.80;99.90;;;;;;5054844;28;20205;-58
2022/07/17 03:14:22;;;;;;;3.17;2.67;;;13.70;99.90;;;;;;5056454;28;20213;-58
2022/07/17 03:16:49;;;;;;;2.73;2.40;;;13.80;99.90;;;;;;5055379;28;20225;-58
2022/07/17 03:19:16;;;;;;;4.00;2.70;;;13.80;99.90;;;;;;5055606;28;20229;-56
2022/07/17 03:21:44;;;;;;;3.03;2.47;;;13.70;99.90;;;;;;5055866;28;20307;-56
2022/07/17 03:24:10;;;;;;;4.90;2.70;;;13.70;99.90;;;;;;5055813;28;20213;-58
2022/07/17 03:26:37;;;;;;;3.67;2.83;;;13.70;99.90;;;;;;5055145;28;20609;-57
2022/07/17 03:29:04;;;;;;;3.83;2.70;;;13.70;99.90;;;;;;5057291;28;20197;-57
2022/07/17 03:31:30;;;;;;;4.43;2.70;;;13.70;99.90;;;;;;5059128;28;20209;-57
2022/07/17 03:33:57;;;;;;;3.47;2.80;;;13.70;99.90;;;;;;5057122;28;20202;-57
2022/07/17 03:36:24;;;;;;;3.43;2.60;;;13.70;99.90;;;;;;5055255;28;20205;-58
2022/07/17 03:38:52;;;;;;;2.50;2.30;;;13.70;99.90;;;;;;5054435;28;20206;-58
2022/07/17 03:41:18;;;;;;;4.43;3.00;;;13.70;99.90;;;;;;5054780;28;20248;-57
2022/07/17 03:43:45;;;;;;;4.23;2.67;;;13.70;99.90;;;;;;5054952;28;20210;-57
2022/07/17 03:46:12;;;;;;;3.10;2.73;;;13.80;99.90;;;;;;5054566;28;20241;-57
2022/07/17 03:48:38;;;;;;;3.60;2.80;;;13.70;99.90;;;;;;5083181;22;20233;-59
2022/07/17 03:51:05;;;;;;;4.00;2.80;;;13.80;99.90;;;;;;5072469;28;20201;-57
2022/07/17 03:53:32;;;;;;;8.07;3.00;;;13.80;99.90;;;;;;5072289;28;20200;-56
2022/07/17 03:56:00;;;;;;;4.23;2.77;;;13.80;99.90;;;;;;5072581;28;20326;-56
2022/07/17 03:58:27;;;;;;;3.00;2.70;;;13.80;99.90;;;;;;5072126;28;20237;-56
2022/07/17 04:00:55;;;;;;;3.00;2.70;;;13.80;99.90;;;;;;5072178;28;20632;-57
2022/07/17 04:03:21;;;;;;;3.37;2.70;;;13.90;99.90;;;;;;5072380;28;20299;-56
2022/07/17 04:05:48;;;;;;;5.73;2.70;;;13.90;99.90;;;;;;5072173;28;20229;-57
2022/07/17 04:08:15;;;;;;;3.57;2.70;;;14.00;99.90;;;;;;5071819;28;20282;-56
2022/07/17 04:10:42;;;;;;;3.57;2.80;;;14.00;99.90;;;;;;5072171;28;20802;-56
2022/07/17 04:13:10;;;;;;;3.37;2.80;;;14.00;99.90;;;;;;5072187;28;20270;-56
2022/07/17 04:15:56;;;;;;;3.20;2.90;;;14.00;99.90;;;;;;5072359;28;20204;-56
2022/07/17 04:18:25;;;;;;;4.80;2.93;;;14.00;99.90;;;;;;5071092;28;20652;-57
2022/07/17 04:20:53;;;;;;;3.67;3.03;;;14.10;99.90;;;;;;5071924;28;20228;-56
2022/07/17 04:23:19;;;;;;;4.10;2.67;;;14.00;99.90;;;;;;5072195;28;20208;-56
2022/07/17 04:25:47;;;;;;;3.13;2.60;;;14.00;99.90;;;;;;5072134;28;20204;-57
2022/07/17 04:28:15;;;;;;;3.77;2.90;;;13.90;99.90;;;;;;5071704;28;20230;-56
2022/07/17 04:30:42;;;;;;;2.73;2.53;;;14.00;99.90;;;;;;5072053;28;20201;-57
2022/07/17 04:33:09;;;;;;;5.27;2.80;;;14.00;99.90;;;;;;5071791;28;20621;-56
2022/07/17 04:35:36;;;;;;;5.00;2.93;;;14.00;99.90;;;;;;5072048;28;20208;-56
2022/07/17 04:38:04;;;;;;;3.77;2.83;;;14.10;99.90;;;;;;5071782;28;20235;-57
2022/07/17 04:40:31;;;;;;;6.17;2.80;;;14.10;99.90;;;;;;5071873;28;20251;-57
2022/07/17 04:42:57;;;;;;;4.93;3.10;;;14.20;99.90;;;;;;5071814;28;20212;-56
2022/07/17 04:45:26;;;;;;;3.67;2.90;;;14.20;99.90;;;;;;5071640;28;20205;-56
2022/07/17 04:47:53;;;;;;;5.23;3.10;;;14.30;99.90;;;;;;5071260;28;21314;-58
2022/07/17 04:50:21;;;;;;;3.03;2.73;;;14.30;99.90;;;;;;5071675;28;20683;-56
2022/07/17 04:52:48;;;;;;;4.43;2.70;;;14.30;99.90;;;;;;5071864;28;20201;-56
2022/07/17 04:55:16;;;;;;;3.63;2.63;;;14.40;99.90;;;;;;5071752;28;20205;-56
2022/07/17 04:57:42;;;;;;;4.00;2.63;;;14.50;99.90;;;;;;5071422;28;20282;-56
2022/07/17 05:00:11;;;;;;;3.10;2.40;;;14.60;99.90;;;;;;5071425;28;20565;-57
2022/07/17 05:02:40;;;;;;;3.10;2.80;;;14.70;99.90;;;;;;5071905;28;20295;-56
2022/07/17 05:05:07;;;;;;;3.60;2.60;;;14.80;99.90;;;;;;5071775;28;20232;-56
2022/07/17 05:07:34;;;;;;;3.07;2.77;;;15.00;99.90;;;;;;5071413;28;20225;-56
2022/07/17 05:10:01;;;;;;;5.40;2.90;;;15.00;99.90;;;;;;5071692;28;20556;-57
2022/07/17 05:12:27;;;;;;;3.23;2.50;;;15.10;99.90;;;;;;5071490;28;20242;-56
2022/07/17 05:14:54;;;;;;;3.80;2.40;;;15.20;99.90;;;;;;5071473;28;20238;-56
2022/07/17 05:17:21;;;;;;;3.53;2.60;;;15.40;99.90;;;;;;5071400;28;20225;-56
2022/07/17 05:19:49;;;;;;;3.83;2.23;;;15.60;99.90;;;;;;5071537;28;20213;-57
2022/07/17 05:22:16;;;;;;;3.93;2.50;;;15.70;99.90;;;;;;5071592;28;20205;-57
2022/07/17 05:24:42;;;;;;;4.17;2.37;;;16.40;99.90;;;;;;5071430;28;20618;-56
2022/07/17 05:27:09;;;;;;;5.43;2.10;;;17.70;99.90;;;;;;5070989;28;20232;-57
2022/07/17 05:29:36;;;;;;;3.22;1.75;;;19.50;99.90;;;;;;5074512;28;20208;-58
2022/07/17 05:32:03;;;;;;;2.15;1.70;;;21.50;99.90;;;;;;5075308;28;20208;-57
2022/07/17 05:34:29;;;;;;;3.72;1.70;;;22.50;98.40;;;;;;5075220;28;20216;-56
2022/07/17 05:36:57;;;;;;;3.90;2.10;;;22.30;96.30;;;;;;5074824;28;20278;-55
2022/07/17 05:39:24;;;;;;;2.85;1.80;;;21.70;96.10;;;;;;5074987;28;20663;-55
2022/07/17 05:41:51;;;;;;;2.00;1.80;;;22.00;96.20;;;;;;5075167;28;20247;-56
2022/07/17 05:44:17;;;;;;;2.10;1.77;;;23.30;94.10;;;;;;5075419;28;20212;-56
2022/07/17 05:46:44;;;;;;;2.28;1.85;;;24.40;91.50;;;;;;5074665;28;20204;-57
2022/07/17 05:49:11;;;;;;;3.80;1.50;;;25.50;87.20;;;;;;5075084;28;20205;-56
2022/07/17 05:51:38;;;;;;;3.60;1.45;;;27.00;80.60;;;;;;5074853;28;20205;-57
2022/07/17 05:54:06;;;;;;;4.47;1.80;;;28.50;73.20;;;;;;5074812;28;20205;-56
2022/07/17 05:56:33;;;;;;;2.13;1.60;;;30.20;65.50;;;;;;5075126;28;20201;-55
2022/07/17 05:59:00;;;;;;;5.55;2.10;;;31.50;59.20;;;;;;5074810;28;20269;-56
2022/07/17 06:01:26;;;;;;;2.63;1.70;;;32.60;55.20;;;;;;5074735;28;20228;-56
2022/07/17 06:03:53;;;;;;;5.75;1.73;;;33.50;51.20;;;;;;5074797;28;20208;-56
2022/07/17 06:06:20;;;;;;;4.45;1.60;;;34.20;50.00;;;;;;5074682;28;20205;-55
2022/07/17 06:08:47;;;;;;;2.38;1.80;;;34.80;47.70;;;;;;5074417;28;20225;-57
2022/07/17 06:11:15;;;;;;;4.50;2.88;;;35.40;46.40;;;;;;5074732;28;20231;-56
2022/07/17 06:13:42;;;;;;;2.65;1.85;;;35.90;44.70;;;;;;5074723;28;20201;-55
2022/07/17 06:16:09;;;;;;;2.55;1.33;;;36.40;43.50;;;;;;5074482;28;20201;-58
2022/07/17 06:18:36;;;;;;;3.30;1.40;;;36.90;42.90;;;;;;5074413;28;20315;-56
2022/07/17 06:21:02;;;;;;;2.08;1.40;;;37.40;41.70;;;;;;5074638;28;20221;-56
2022/07/17 06:23:30;;;;;;;3.83;1.40;;;37.70;40.20;;;;;;5074166;28;20634;-56
2022/07/17 06:25:57;;;;;;;1.67;1.42;;;37.90;39.80;;;;;;5074745;28;20447;-57
2022/07/17 06:28:25;;;;;;;4.65;1.42;;;38.30;39.60;;;;;;5073999;28;20233;-58
2022/07/17 06:30:51;;;;;;;1.58;1.40;;;38.30;38.80;;;;;;5074344;28;20562;-58
2022/07/17 06:33:18;;;;;;;2.08;1.88;;;38.30;38.70;;;;;;5074249;28;20292;-58
2022/07/17 06:35:45;;;;;;;1.80;1.50;;;38.40;38.50;;;;;;5074094;28;20627;-56
2022/07/17 06:38:12;;;;;;;3.83;1.50;;;38.70;37.90;;;;;;5074579;28;20332;-55
2022/07/17 06:40:39;;;;;;;4.05;1.55;;;39.30;37.50;;;;;;5073659;28;20229;-56
2022/07/17 06:43:06;;;;;;;2.15;1.38;;;39.80;36.80;;;;;;5074088;28;20680;-58
2022/07/17 06:45:35;;;;;;;2.95;1.55;;;40.20;36.50;;;;;;5074108;28;20216;-56
2022/07/17 06:48:02;;;;;;;4.10;2.25;;;40.50;35.60;;;;;;5073464;28;20233;-56
2022/07/17 06:50:29;;;;;;;2.33;1.75;;;40.30;36.40;;;;;;5073780;28;20205;-56
2022/07/17 06:52:55;;;;;;;1.77;1.38;;;40.60;36.30;;;;;;5073743;28;20673;-56
2022/07/17 06:55:22;;;;;;;2.40;1.42;;;41.40;35.00;;;;;;5073698;28;20209;-55
2022/07/17 06:57:49;;;;;;;2.10;1.50;;;41.70;34.50;;;;;;5073065;28;20731;-56
2022/07/17 07:00:18;;;;;;;3.10;1.40;;;41.60;34.60;;;;;;5073402;28;20204;-55
2022/07/17 07:02:46;;;;;;;1.48;1.38;;;41.00;34.10;;;;;;5073543;28;20300;-55
2022/07/17 07:05:13;;;;;;;2.42;1.15;;;40.70;34.60;;;;;;5073237;28;20258;-55
2022/07/17 07:07:39;;;;;;;1.67;1.40;;;40.70;34.90;;;;;;5073128;28;20229;-55
2022/07/17 07:10:07;;;;;;;3.05;1.40;;;40.10;35.70;;;;;;5073279;28;20604;-57
2022/07/17 07:12:34;;;;;;;2.20;1.52;;;40.50;34.40;;;;;;5073415;28;20196;-56
2022/07/17 07:15:00;;;;;;;1.63;1.42;;;40.30;35.10;;;;;;5073189;28;20204;-56
2022/07/17 07:17:27;;;;;;;3.10;1.40;;;40.60;34.70;;;;;;5073059;28;20224;-56
2022/07/17 07:19:55;;;;;;;2.33;1.48;;;41.00;33.60;;;;;;5073037;28;20208;-56
2022/07/17 07:22:22;;;;;;;3.00;1.15;;;40.30;34.80;;;;;;5073196;28;20227;-56
2022/07/17 07:24:48;;;;;;;2.58;1.63;;;40.70;33.80;;;;;;5073182;28;20204;-57
2022/07/17 07:27:15;;;;;;;2.97;1.45;;;41.00;33.30;;;;;;5072709;28;20617;-57
2022/07/17 07:29:42;;;;;;;2.50;1.60;;;41.20;33.40;;;;;;5072849;28;20200;-56
2022/07/17 07:32:08;;;;;;;1.85;1.40;;;41.70;32.90;;;;;;5072788;28;20698;-58
2022/07/17 07:34:35;;;;;;;2.85;1.30;;;42.20;32.40;;;;;;5072981;28;20208;-57
2022/07/17 07:37:03;;;;;;;3.88;2.63;;;41.50;33.00;;;;;;5072650;28;20233;-55
2022/07/17 07:39:30;;;;;;;1.85;1.25;;;40.90;33.60;;;;;;5072489;28;20694;-56
2022/07/17 07:41:57;;;;;;;2.20;1.15;;;40.10;34.20;;;;;;5072745;28;20232;-56
2022/07/17 07:44:24;;;;;;;2.78;2.03;;;40.20;34.20;;;;;;5072641;28;20690;-56
2022/07/17 07:46:50;;;;;;;2.13;1.17;;;41.30;32.90;;;;;;5072417;28;20208;-56
2022/07/17 07:49:17;;;;;;;2.88;1.30;;;42.20;31.90;;;;;;5072577;28;20208;-57
2022/07/17 07:51:44;;;;;;;2.60;1.70;;;42.90;31.30;;;;;;5071747;28;20620;-56
2022/07/17 07:54:12;;;;;;;5.05;1.58;;;42.60;31.40;;;;;;5072665;28;20261;-55
2022/07/17 07:56:39;;;;;;;4.20;2.58;;;41.30;32.60;;;;;;5072337;28;20672;-56
2022/07/17 07:59:06;;;;;;;1.88;1.55;;;40.50;34.10;;;;;;5072153;28;20205;-56
2022/07/17 08:01:33;;;;;;;3.53;2.50;;;41.40;32.80;;;;;;5072229;28;20312;-55
2022/07/17 08:03:59;;;;;;;2.47;1.80;;;42.20;32.30;;;;;;5072616;28;20208;-55
2022/07/17 08:06:26;;;;;;;3.10;1.50;;;42.70;31.80;;;;;;5072351;28;20629;-56
2022/07/17 08:08:53;;;;;;;1.88;1.60;;;43.50;31.00;;;;;;5071867;28;20224;-56
2022/07/17 08:11:21;;;;;;;2.22;1.35;;;44.00;30.40;;;;;;5072201;28;20200;-55
2022/07/17 08:13:47;;;;;;;2.95;1.85;;;43.00;31.40;;;;;;5072153;28;20208;-54
2022/07/17 08:16:14;;;;;;;2.78;1.42;;;42.60;31.50;;;;;;5072154;28;20208;-55
2022/07/17 08:18:41;;;;;;;2.28;1.52;;;42.70;31.50;;;;;;5071996;28;20282;-55
2022/07/17 08:21:07;;;;;;;1.80;1.20;;;42.40;31.70;;;;;;5072185;28;20278;-55
2022/07/17 08:23:34;;;;;;;2.47;1.13;;;42.80;31.10;;;;;;5072128;28;20296;-57
2022/07/17 08:26:01;;;;;;;1.70;1.30;;;43.20;30.80;;;;;;5072044;28;20261;-55
2022/07/17 08:28:29;;;;;;;2.15;1.50;;;42.90;31.10;;;;;;5071636;28;20223;-56
2022/07/17 08:30:55;;;;;;;3.28;1.33;;;42.70;31.00;;;;;;5072084;28;20612;-55
2022/07/17 08:33:22;;;;;;;1.63;1.30;;;42.60;31.20;;;;;;5072011;28;20616;-54
2022/07/17 08:35:49;;;;;;;1.63;1.20;;;42.30;31.30;;;;;;5072076;28;20270;-56
2022/07/17 08:38:15;;;;;;;2.00;1.40;;;42.10;31.60;;;;;;5071595;28;20243;-55
2022/07/17 08:40:43;;;;;;;3.03;1.35;;;42.10;31.60;;;;;;5071779;28;20204;-55
2022/07/17 08:43:10;;;;;;;1.98;1.40;;;42.30;31.20;;;;;;5071928;28;20211;-55
2022/07/17 08:45:40;;;;;;;1.75;1.25;;;42.30;31.10;;;;;;5071965;28;20223;-54
2022/07/17 08:48:10;;;;;;;4.40;1.40;;;42.20;31.40;;;;;;5071534;28;20232;-55
2022/07/17 08:50:37;;;;;;;2.28;1.50;;;41.90;31.80;;;;;;5071866;28;20205;-54
2022/07/17 08:53:04;;;;;;;1.35;1.05;;;40.90;32.40;;;;;;5071821;28;20200;-54
2022/07/17 08:55:32;;;;;;;2.45;1.50;;;39.00;33.50;;;;;;5071711;28;20211;-55
2022/07/17 08:57:59;;;;;;;4.57;1.60;;;36.80;35.50;;;;;;5071551;28;20278;-54
2022/07/17 09:00:27;;;;;;;1.55;1.30;;;35.00;37.10;;;;;;5072078;28;20209;-54
2022/07/17 09:02:57;;;;;;;4.35;1.40;;;33.00;39.50;;;;;;5071903;28;20235;-55
2022/07/17 09:05:25;;;;;;;2.38;1.20;;;31.60;41.50;;;;;;5075860;28;20205;-55
2022/07/17 09:07:52;;;;;;;2.08;1.48;;;30.50;42.80;;;;;;5075334;28;20637;-54
2022/07/17 09:10:19;;;;;;;2.22;1.38;;;29.80;43.60;;;;;;5075679;28;20730;-54
2022/07/17 09:12:46;;;;;;;1.83;1.23;;;29.30;43.70;;;;;;5075754;28;20205;-54
2022/07/17 09:15:17;;;;;;;2.05;1.50;;;28.70;44.70;;;;;;5075630;28;20216;-54
2022/07/17 09:17:52;;;;;;;3.28;1.38;;;28.10;45.00;;;;;;5075386;28;20221;-54
2022/07/17 09:20:20;;;;;;;1.42;1.23;;;27.50;46.60;;;;;;5075348;28;20606;-54
2022/07/17 09:22:57;;;;;;;3.60;1.60;;;27.20;47.70;;;;;;5075075;28;20224;-54
2022/07/17 09:25:36;;;;;;;2.78;1.55;;;26.90;48.30;;;;;;5075409;28;20291;-54
2022/07/17 09:28:05;;;;;;;4.57;1.38;;;26.60;48.60;;;;;;5074826;28;20617;-54
2022/07/17 09:30:33;;;;;;;2.95;1.30;;;26.40;49.00;;;;;;5075071;28;20232;-54
2022/07/17 09:33:00;;;;;;;3.55;1.50;;;26.40;49.80;;;;;;5075051;28;20642;-54
2022/07/17 09:35:28;;;;;;;5.25;1.98;;;26.30;49.90;;;;;;5075293;28;20262;-53
2022/07/17 09:37:55;;;;;;;3.95;1.50;;;26.20;50.90;;;;;;5074994;28;20229;-52
2022/07/17 09:43:08;;;;;;;2.25;1.33;;;26.10;49.50;;;;;;5074942;28;20354;-53
2022/07/17 09:45:36;;;;;;;6.22;1.60;;;26.00;49.80;;;;;;5074741;28;20208;-54
2022/07/17 09:48:05;;;;;;;2.40;1.60;;;25.90;50.00;;;;;;5098451;22;20653;-57
2022/07/17 09:50:35;;;;;;;3.78;1.52;;;25.90;49.70;;;;;;5076353;28;20551;-58
2022/07/17 09:53:03;;;;;;;1.70;1.55;;;25.80;50.10;;;;;;5076804;28;20201;-58
2022/07/17 09:55:31;;;;;;;1.88;1.38;;;26.00;50.00;;;;;;5071235;28;20574;-61
2022/07/17 09:58:01;;;;;;;3.10;1.40;;;26.20;49.60;;;;;;5074695;28;20307;-60
2022/07/17 10:00:28;;;;;;;1.70;1.35;;;26.30;48.90;;;;;;5075512;28;20236;-57
2022/07/17 10:02:55;;;;;;;1.90;1.45;;;26.30;48.00;;;;;;5074729;28;20592;-57
2022/07/17 10:05:21;;;;;;;5.78;1.65;;;26.40;48.40;;;;;;5075023;28;20231;-57
2022/07/17 10:07:49;;;;;;;1.73;1.17;;;26.50;48.70;;;;;;5075226;28;20225;-56
2022/07/17 10:10:18;;;;;;;1.45;1.20;;;26.60;48.50;;;;;;5075543;28;20310;-57
2022/07/17 10:12:47;;;;;;;1.20;1.10;;;26.70;48.00;;;;;;5074999;28;20583;-57
2022/07/17 10:15:16;;;;;;;1.48;1.05;;;26.70;48.40;;;;;;5073714;28;20209;-57
2022/07/17 10:17:43;;;;;;;2.38;1.52;;;26.70;47.20;;;;;;5074768;28;20645;-57
2022/07/17 10:20:11;;;;;;;1.40;1.30;;;26.80;47.00;;;;;;5074899;28;20626;-56
2022/07/17 10:22:43;;;;;;;3.47;1.30;;;26.90;46.10;;;;;;5075127;28;20267;-61
2022/07/17 10:25:15;;;;;;;1.63;1.50;;;26.80;46.00;;;;;;5074913;28;20436;-56
2022/07/17 10:27:47;;;;;;;2.40;1.23;;;26.80;46.60;;;;;;5074570;28;20229;-55
2022/07/17 10:30:23;;;;;;;1.65;1.30;;;27.00;46.20;;;;;;5074796;28;20255;-55
2022/07/17 10:32:55;;;;;;;1.63;1.45;;;27.10;46.30;;;;;;5074801;28;20207;-56
2022/07/17 10:35:22;;;;;;;4.63;1.80;;;27.10;45.70;;;;;;5074701;28;20243;-56
2022/07/17 10:37:49;;;;;;;3.50;2.33;;;27.20;45.80;;;;;;5074690;28;20992;-56
2022/07/17 10:40:19;;;;;;;2.55;1.77;;;27.10;45.70;;;;;;5077296;28;20680;-56
2022/07/17 10:42:58;;;;;;;1.33;1.23;;;27.20;45.60;;;;;;5079574;28;20229;-56
2022/07/17 10:45:28;;;;;;;2.63;1.33;;;27.30;45.10;;;;;;5079670;28;20209;-57
2022/07/17 10:47:58;;;;;;;8.48;1.30;;;27.40;45.10;;;;;;5075330;28;20236;-57
2022/07/17 10:50:28;;;;;;;2.30;1.15;;;27.40;45.40;;;;;;5074863;28;20201;-56
2022/07/17 10:53:06;;;;;;;1.63;1.10;;;27.50;45.30;;;;;;5075083;28;20197;-57
2022/07/17 10:55:35;;;;;;;1.45;1.30;;;27.60;45.20;;;;;;5074967;28;20212;-56
2022/07/17 10:58:02;;;;;;;3.22;1.27;;;27.70;45.20;;;;;;5074156;28;20224;-56
2022/07/17 11:00:29;;;;;;;2.80;1.52;;;27.80;44.90;;;;;;5074462;28;20212;-56
2022/07/17 11:02:56;;;;;;;1.88;1.02;;;27.80;45.70;;;;;;5074036;28;20593;-56
2022/07/17 11:05:24;;;;;;;1.98;1.55;;;27.90;44.80;;;;;;5074440;28;20213;-56
2022/07/17 11:07:53;;;;;;;1.40;1.05;;;27.90;44.90;;;;;;5074529;28;20221;-58
2022/07/17 11:10:20;;;;;;;1.73;1.42;;;28.00;44.00;;;;;;5074140;28;20296;-60
2022/07/17 11:12:48;;;;;;;1.90;1.30;;;28.10;44.00;;;;;;5074048;28;20262;-57
2022/07/17 11:15:14;;;;;;;4.10;1.33;;;28.10;43.80;;;;;;5073845;28;20205;-57
2022/07/17 11:17:46;;;;;;;1.55;1.10;;;28.00;43.50;;;;;;5073952;28;20275;-57
2022/07/17 11:20:12;;;;;;;1.45;1.33;;;28.00;43.20;;;;;;5073413;28;20756;-58
2022/07/17 11:22:39;;;;;;;5.00;3.17;;;28.10;42.90;;;;;;5073448;28;20220;-58
2022/07/17 11:25:08;;;;;;;2.75;1.20;;;28.10;43.50;;;;;;5073572;28;20228;-59
2022/07/17 11:27:36;;;;;;;3.67;1.15;;;28.00;43.50;;;;;;5073430;28;20225;-59
2022/07/17 11:30:05;;;;;;;1.33;1.20;;;28.10;43.20;;;;;;5073950;28;20677;-59
2022/07/17 11:32:36;;;;;;;4.00;1.98;;;28.20;42.80;;;;;;5073974;28;20201;-58
2022/07/17 11:35:03;;;;;;;12.43;3.65;;;28.20;43.30;;;;;;5073895;28;20209;-57
2022/07/17 11:37:31;;;;;;;4.30;2.05;;;28.20;43.30;;;;;;5073952;28;20235;-57
2022/07/17 11:39:58;;;;;;;5.40;1.75;;;28.20;43.10;;;;;;5073959;28;20541;-60
2022/07/17 11:42:25;;;;;;;67.30;20.15;;;28.20;43.30;;;;;;5074190;28;20229;-58
2022/07/17 11:44:54;;;;;;;2.55;1.40;;;28.20;43.80;;;;;;5074383;28;20250;-59
2022/07/17 11:47:24;;;;;;;2.40;1.27;;;28.40;43.40;;;;;;5074062;28;20306;-58
2022/07/17 11:49:51;;;;;;;18.67;4.93;;;28.40;42.60;;;;;;5074316;28;20216;-59
2022/07/17 11:52:19;;;;;;;12.02;4.03;;;28.50;42.80;;;;;;5073619;28;20588;-62
2022/07/17 11:54:47;;;;;;;1.60;1.50;;;28.60;42.80;;;;;;5075155;28;20208;-62
2022/07/17 11:57:14;;;;;;;1.73;1.40;;;28.70;42.30;;;;;;5075285;28;20737;-63
2022/07/17 11:59:41;;;;;;;2.05;1.42;;;28.80;42.60;;;;;;5075835;28;20215;-63
2022/07/17 12:02:09;;;;;;;2.42;1.30;;;28.90;42.10;;;;;;5075746;28;20229;-61
2022/07/17 12:04:37;;;;;;;6.63;2.67;;;28.90;42.20;;;;;;5075362;28;20205;-63
2022/07/17 12:07:04;;;;;;;4.32;1.40;;;28.70;42.20;;;;;;5075349;28;20216;-62
2022/07/17 12:09:34;;;;;;;4.30;1.40;;;28.80;41.90;;;;;;5075195;28;20216;-64
2022/07/17 12:12:02;;;;;;;2.97;1.90;;;28.80;42.10;;;;;;5075482;28;20250;-62
2022/07/17 12:14:29;;;;;;;4.68;2.05;;;29.00;42.20;;;;;;5075612;28;20212;-62
2022/07/17 12:16:57;;;;;;;6.65;2.33;;;29.10;42.40;;;;;;5075828;28;20244;-62
2022/07/17 12:19:25;;;;;;;1.20;1.10;;;29.30;42.20;;;;;;5074112;28;20560;-62
2022/07/17 12:21:58;;;;;;;2.90;1.20;;;29.40;41.40;;;;;;5074527;28;20429;-63
2022/07/17 12:24:28;;;;;;;1.55;1.25;;;29.50;41.60;;;;;;5075143;28;20208;-63
2022/07/17 12:26:56;;;;;;;2.40;1.60;;;29.60;41.50;;;;;;5074349;28;20204;-63
2022/07/17 12:29:24;;;;;;;1.15;1.08;;;29.50;41.60;;;;;;5074655;28;20204;-62
2022/07/17 12:32:02;;;;;;;2.13;1.60;;;29.60;40.90;;;;;;5075450;28;20209;-62
2022/07/17 12:34:28;;;;;;;1.27;1.08;;;29.50;41.20;;;;;;5075188;28;20208;-61
2022/07/17 12:36:56;;;;;;;4.38;1.63;;;29.50;41.60;;;;;;5075663;28;20204;-63
2022/07/17 12:39:23;;;;;;;2.60;1.20;;;29.50;41.00;;;;;;5074386;28;20263;-63
2022/07/17 12:41:50;;;;;;;2.30;1.45;;;29.60;40.90;;;;;;5074820;28;20352;-63
2022/07/17 12:44:17;;;;;;;4.63;1.60;;;29.70;41.40;;;;;;5073708;28;20239;-62
2022/07/17 12:46:44;;;;;;;1.40;1.30;;;29.70;40.60;;;;;;5074809;28;20335;-63
2022/07/17 12:49:10;;;;;;;1.30;1.20;;;29.70;40.50;;;;;;5073737;28;20240;-63